sensor_id;sensor_type;location;lat;lon;timestamp;P1;durP1;ratioP1;P2;durP2;ratioP2
8952;SDS011;4511;50.890;8.054;2022-11-20T00:00:38;12.07;;;10.20;;
8952;SDS011;4511;50.890;8.054;2022-11-20T00:03:06;11.53;;;10.40;;
8952;SDS011;4511;50.890;8.054;2022-11-20T00:05:33;10.27;;;9.27;;
8952;SDS011;4511;50.890;8.054;2022-11-20T00:08:00;11.27;;;10.10;;
8952;SDS011;4511;50.890;8.054;2022-11-20T00:10:27;10.73;;;9.30;;
8952;SDS011;4511;50.890;8.054;2022-11-20T00:12:53;10.37;;;9.33;;
8952;SDS011;4511;50.890;8.054;2022-11-20T00:15:20;10.83;;;9.60;;
8952;SDS011;4511;50.890;8.054;2022-11-20T00:17:48;10.73;;;9.63;;
8952;SDS011;4511;50.890;8.054;2022-11-20T00:20:16;10.83;;;9.73;;
8952;SDS011;4511;50.890;8.054;2022-11-20T00:22:43;10.00;;;9.00;;
8952;SDS011;4511;50.890;8.054;2022-11-20T00:25:10;10.73;;;9.63;;
8952;SDS011;4511;50.890;8.054;2022-11-20T00:27:38;10.30;;;9.27;;
8952;SDS011;4511;50.890;8.054;2022-11-20T00:30:05;10.23;;;9.13;;
8952;SDS011;4511;50.890;8.054;2022-11-20T00:32:33;11.07;;;9.57;;
8952;SDS011;4511;50.890;8.054;2022-11-20T00:35:00;9.97;;;8.83;;
8952;SDS011;4511;50.890;8.054;2022-11-20T00:37:29;12.30;;;10.30;;
8952;SDS011;4511;50.890;8.054;2022-11-20T00:39:55;10.47;;;9.33;;
8952;SDS011;4511;50.890;8.054;2022-11-20T00:42:22;11.47;;;10.13;;
8952;SDS011;4511;50.890;8.054;2022-11-20T00:44:49;10.60;;;9.50;;
8952;SDS011;4511;50.890;8.054;2022-11-20T00:47:17;11.17;;;9.97;;
8952;SDS011;4511;50.890;8.054;2022-11-20T00:49:43;11.57;;;10.37;;
8952;SDS011;4511;50.890;8.054;2022-11-20T00:52:10;11.10;;;10.00;;
8952;SDS011;4511;50.890;8.054;2022-11-20T00:54:39;11.77;;;9.90;;
8952;SDS011;4511;50.890;8.054;2022-11-20T00:57:06;11.73;;;9.73;;
8952;SDS011;4511;50.890;8.054;2022-11-20T00:59:33;12.37;;;9.93;;
8952;SDS011;4511;50.890;8.054;2022-11-20T01:02:00;12.27;;;10.23;;
8952;SDS011;4511;50.890;8.054;2022-11-20T01:04:27;12.47;;;10.07;;
8952;SDS011;4511;50.890;8.054;2022-11-20T01:06:54;12.03;;;10.73;;
8952;SDS011;4511;50.890;8.054;2022-11-20T01:09:21;11.40;;;10.20;;
8952;SDS011;4511;50.890;8.054;2022-11-20T01:11:50;11.50;;;10.30;;
8952;SDS011;4511;50.890;8.054;2022-11-20T01:14:17;10.93;;;9.80;;
8952;SDS011;4511;50.890;8.054;2022-11-20T01:16:46;11.17;;;10.07;;
8952;SDS011;4511;50.890;8.054;2022-11-20T01:19:17;11.67;;;10.47;;
8952;SDS011;4511;50.890;8.054;2022-11-20T01:21:46;11.13;;;9.93;;
8952;SDS011;4511;50.890;8.054;2022-11-20T01:24:15;11.57;;;10.03;;
8952;SDS011;4511;50.890;8.054;2022-11-20T01:26:43;11.97;;;10.17;;
8952;SDS011;4511;50.890;8.054;2022-11-20T01:29:13;10.67;;;9.53;;
8952;SDS011;4511;50.890;8.054;2022-11-20T01:31:43;10.23;;;9.23;;
8952;SDS011;4511;50.890;8.054;2022-11-20T01:34:11;10.93;;;9.43;;
8952;SDS011;4511;50.890;8.054;2022-11-20T01:36:39;10.90;;;9.67;;
8952;SDS011;4511;50.890;8.054;2022-11-20T01:39:11;10.30;;;9.30;;
8952;SDS011;4511;50.890;8.054;2022-11-20T01:41:39;11.63;;;10.37;;
8952;SDS011;4511;50.890;8.054;2022-11-20T01:47:11;12.33;;;10.50;;
8952;SDS011;4511;50.890;8.054;2022-11-20T01:49:44;12.90;;;10.90;;
8952;SDS011;4511;50.890;8.054;2022-11-20T01:52:17;11.70;;;10.50;;
8952;SDS011;4511;50.890;8.054;2022-11-20T01:54:49;12.17;;;10.67;;
8952;SDS011;4511;50.890;8.054;2022-11-20T01:57:22;12.70;;;11.33;;
8952;SDS011;4511;50.890;8.054;2022-11-20T01:59:53;12.00;;;10.73;;
8952;SDS011;4511;50.890;8.054;2022-11-20T02:02:26;14.47;;;10.80;;
8952;SDS011;4511;50.890;8.054;2022-11-20T02:04:54;13.17;;;11.10;;
8952;SDS011;4511;50.890;8.054;2022-11-20T02:07:25;12.57;;;11.27;;
8952;SDS011;4511;50.890;8.054;2022-11-20T02:09:51;12.40;;;10.90;;
8952;SDS011;4511;50.890;8.054;2022-11-20T02:12:18;11.97;;;10.60;;
8952;SDS011;4511;50.890;8.054;2022-11-20T02:15:04;11.57;;;10.37;;
8952;SDS011;4511;50.890;8.054;2022-11-20T02:17:31;11.13;;;9.93;;
8952;SDS011;4511;50.890;8.054;2022-11-20T02:19:58;11.33;;;10.13;;
8952;SDS011;4511;50.890;8.054;2022-11-20T02:22:26;12.00;;;10.60;;
8952;SDS011;4511;50.890;8.054;2022-11-20T02:24:58;12.17;;;10.70;;
8952;SDS011;4511;50.890;8.054;2022-11-20T02:27:27;12.30;;;10.90;;
8952;SDS011;4511;50.890;8.054;2022-11-20T02:29:56;11.57;;;10.47;;
8952;SDS011;4511;50.890;8.054;2022-11-20T02:32:26;12.33;;;10.70;;
8952;SDS011;4511;50.890;8.054;2022-11-20T02:34:55;12.80;;;11.13;;
8952;SDS011;4511;50.890;8.054;2022-11-20T02:37:22;12.93;;;11.37;;
8952;SDS011;4511;50.890;8.054;2022-11-20T02:39:53;12.73;;;11.13;;
8952;SDS011;4511;50.890;8.054;2022-11-20T02:42:21;12.90;;;10.87;;
8952;SDS011;4511;50.890;8.054;2022-11-20T02:44:48;13.27;;;11.70;;
8952;SDS011;4511;50.890;8.054;2022-11-20T02:47:15;12.70;;;11.03;;
8952;SDS011;4511;50.890;8.054;2022-11-20T02:49:41;12.93;;;11.53;;
8952;SDS011;4511;50.890;8.054;2022-11-20T02:52:08;12.93;;;11.07;;
8952;SDS011;4511;50.890;8.054;2022-11-20T02:54:35;14.03;;;11.00;;
8952;SDS011;4511;50.890;8.054;2022-11-20T02:57:02;12.47;;;11.17;;
8952;SDS011;4511;50.890;8.054;2022-11-20T02:59:30;14.67;;;11.53;;
8952;SDS011;4511;50.890;8.054;2022-11-20T03:01:56;12.93;;;11.00;;
8952;SDS011;4511;50.890;8.054;2022-11-20T03:04:23;12.77;;;10.30;;
8952;SDS011;4511;50.890;8.054;2022-11-20T03:06:50;12.37;;;11.07;;
8952;SDS011;4511;50.890;8.054;2022-11-20T03:09:17;13.10;;;11.20;;
8952;SDS011;4511;50.890;8.054;2022-11-20T03:11:43;12.73;;;10.77;;
8952;SDS011;4511;50.890;8.054;2022-11-20T03:14:10;12.63;;;10.90;;
8952;SDS011;4511;50.890;8.054;2022-11-20T03:16:38;12.47;;;10.70;;
8952;SDS011;4511;50.890;8.054;2022-11-20T03:19:05;13.17;;;11.03;;
8952;SDS011;4511;50.890;8.054;2022-11-20T03:21:33;12.10;;;10.50;;
8952;SDS011;4511;50.890;8.054;2022-11-20T03:24:00;12.60;;;11.17;;
8952;SDS011;4511;50.890;8.054;2022-11-20T03:26:26;12.87;;;11.17;;
8952;SDS011;4511;50.890;8.054;2022-11-20T03:28:54;12.53;;;10.83;;
8952;SDS011;4511;50.890;8.054;2022-11-20T03:31:23;12.40;;;10.87;;
8952;SDS011;4511;50.890;8.054;2022-11-20T03:33:54;12.47;;;11.17;;
8952;SDS011;4511;50.890;8.054;2022-11-20T03:36:22;12.83;;;11.27;;
8952;SDS011;4511;50.890;8.054;2022-11-20T03:38:49;14.47;;;11.83;;
8952;SDS011;4511;50.890;8.054;2022-11-20T03:41:17;12.77;;;10.57;;
8952;SDS011;4511;50.890;8.054;2022-11-20T03:43:46;13.57;;;11.13;;
8952;SDS011;4511;50.890;8.054;2022-11-20T03:46:15;12.17;;;10.80;;
8952;SDS011;4511;50.890;8.054;2022-11-20T03:48:41;13.20;;;11.27;;
8952;SDS011;4511;50.890;8.054;2022-11-20T03:51:10;14.17;;;11.90;;
8952;SDS011;4511;50.890;8.054;2022-11-20T03:53:38;12.33;;;11.03;;
8952;SDS011;4511;50.890;8.054;2022-11-20T03:56:06;13.00;;;11.60;;
8952;SDS011;4511;50.890;8.054;2022-11-20T03:58:34;15.23;;;12.27;;
8952;SDS011;4511;50.890;8.054;2022-11-20T04:01:05;13.17;;;11.60;;
8952;SDS011;4511;50.890;8.054;2022-11-20T04:03:33;13.57;;;11.73;;
8952;SDS011;4511;50.890;8.054;2022-11-20T04:06:02;13.13;;;11.37;;
8952;SDS011;4511;50.890;8.054;2022-11-20T04:08:31;13.67;;;11.40;;
8952;SDS011;4511;50.890;8.054;2022-11-20T04:11:07;13.80;;;11.50;;
8952;SDS011;4511;50.890;8.054;2022-11-20T04:13:35;13.80;;;11.80;;
8952;SDS011;4511;50.890;8.054;2022-11-20T04:16:02;14.97;;;11.87;;
8952;SDS011;4511;50.890;8.054;2022-11-20T04:18:30;15.13;;;12.03;;
8952;SDS011;4511;50.890;8.054;2022-11-20T04:20:57;14.57;;;12.23;;
8952;SDS011;4511;50.890;8.054;2022-11-20T04:23:24;15.70;;;12.17;;
8952;SDS011;4511;50.890;8.054;2022-11-20T04:25:52;15.37;;;12.40;;
8952;SDS011;4511;50.890;8.054;2022-11-20T04:28:19;14.03;;;12.17;;
8952;SDS011;4511;50.890;8.054;2022-11-20T04:30:46;14.83;;;12.40;;
8952;SDS011;4511;50.890;8.054;2022-11-20T04:33:12;15.97;;;12.63;;
8952;SDS011;4511;50.890;8.054;2022-11-20T04:35:39;17.17;;;13.30;;
8952;SDS011;4511;50.890;8.054;2022-11-20T04:38:06;16.00;;;12.77;;
8952;SDS011;4511;50.890;8.054;2022-11-20T04:40:33;15.63;;;12.53;;
8952;SDS011;4511;50.890;8.054;2022-11-20T04:43:01;16.27;;;12.53;;
8952;SDS011;4511;50.890;8.054;2022-11-20T04:45:27;15.93;;;12.77;;
8952;SDS011;4511;50.890;8.054;2022-11-20T04:47:54;17.77;;;13.20;;
8952;SDS011;4511;50.890;8.054;2022-11-20T04:50:22;16.50;;;13.00;;
8952;SDS011;4511;50.890;8.054;2022-11-20T04:52:48;17.30;;;13.13;;
8952;SDS011;4511;50.890;8.054;2022-11-20T04:55:15;16.93;;;13.03;;
8952;SDS011;4511;50.890;8.054;2022-11-20T04:57:42;17.03;;;13.73;;
8952;SDS011;4511;50.890;8.054;2022-11-20T05:00:11;18.30;;;13.90;;
8952;SDS011;4511;50.890;8.054;2022-11-20T05:02:39;19.47;;;14.20;;
8952;SDS011;4511;50.890;8.054;2022-11-20T05:05:06;17.47;;;13.83;;
8952;SDS011;4511;50.890;8.054;2022-11-20T05:07:33;18.93;;;14.47;;
8952;SDS011;4511;50.890;8.054;2022-11-20T05:09:59;16.53;;;13.83;;
8952;SDS011;4511;50.890;8.054;2022-11-20T05:12:26;17.77;;;13.63;;
8952;SDS011;4511;50.890;8.054;2022-11-20T05:14:53;18.50;;;14.13;;
8952;SDS011;4511;50.890;8.054;2022-11-20T05:17:21;18.13;;;13.97;;
8952;SDS011;4511;50.890;8.054;2022-11-20T05:19:49;18.97;;;13.83;;
8952;SDS011;4511;50.890;8.054;2022-11-20T05:22:16;18.93;;;13.77;;
8952;SDS011;4511;50.890;8.054;2022-11-20T05:24:43;17.33;;;13.70;;
8952;SDS011;4511;50.890;8.054;2022-11-20T05:27:09;19.60;;;14.13;;
8952;SDS011;4511;50.890;8.054;2022-11-20T05:29:36;19.53;;;14.60;;
8952;SDS011;4511;50.890;8.054;2022-11-20T05:32:03;19.83;;;15.17;;
8952;SDS011;4511;50.890;8.054;2022-11-20T05:34:33;23.50;;;16.30;;
8952;SDS011;4511;50.890;8.054;2022-11-20T05:37:00;22.97;;;15.73;;
8952;SDS011;4511;50.890;8.054;2022-11-20T05:39:27;18.83;;;14.30;;
8952;SDS011;4511;50.890;8.054;2022-11-20T05:41:54;18.53;;;13.57;;
8952;SDS011;4511;50.890;8.054;2022-11-20T05:44:34;19.57;;;14.17;;
8952;SDS011;4511;50.890;8.054;2022-11-20T05:47:01;17.93;;;13.23;;
8952;SDS011;4511;50.890;8.054;2022-11-20T05:49:28;21.00;;;14.57;;
8952;SDS011;4511;50.890;8.054;2022-11-20T05:51:56;18.67;;;13.37;;
8952;SDS011;4511;50.890;8.054;2022-11-20T05:54:23;19.50;;;13.07;;
8952;SDS011;4511;50.890;8.054;2022-11-20T05:56:50;16.33;;;12.47;;
8952;SDS011;4511;50.890;8.054;2022-11-20T05:59:17;19.60;;;13.83;;
8952;SDS011;4511;50.890;8.054;2022-11-20T06:01:44;19.03;;;13.73;;
8952;SDS011;4511;50.890;8.054;2022-11-20T06:04:11;20.80;;;13.90;;
8952;SDS011;4511;50.890;8.054;2022-11-20T06:06:39;21.03;;;14.53;;
8952;SDS011;4511;50.890;8.054;2022-11-20T06:09:07;18.00;;;13.70;;
8952;SDS011;4511;50.890;8.054;2022-11-20T06:11:34;20.00;;;15.13;;
8952;SDS011;4511;50.890;8.054;2022-11-20T06:14:01;22.73;;;15.37;;
8952;SDS011;4511;50.890;8.054;2022-11-20T06:16:27;20.20;;;14.87;;
8952;SDS011;4511;50.890;8.054;2022-11-20T06:18:54;20.10;;;13.40;;
8952;SDS011;4511;50.890;8.054;2022-11-20T06:21:22;22.20;;;14.43;;
8952;SDS011;4511;50.890;8.054;2022-11-20T06:23:49;20.90;;;15.10;;
8952;SDS011;4511;50.890;8.054;2022-11-20T06:26:20;20.37;;;15.10;;
8952;SDS011;4511;50.890;8.054;2022-11-20T06:28:49;22.53;;;15.10;;
8952;SDS011;4511;50.890;8.054;2022-11-20T06:31:17;20.73;;;14.90;;
8952;SDS011;4511;50.890;8.054;2022-11-20T06:33:45;21.80;;;14.70;;
8952;SDS011;4511;50.890;8.054;2022-11-20T06:36:14;22.53;;;14.53;;
8952;SDS011;4511;50.890;8.054;2022-11-20T06:38:42;21.13;;;15.73;;
8952;SDS011;4511;50.890;8.054;2022-11-20T06:41:10;23.13;;;16.00;;
8952;SDS011;4511;50.890;8.054;2022-11-20T06:43:40;23.47;;;15.87;;
8952;SDS011;4511;50.890;8.054;2022-11-20T06:46:08;19.57;;;14.40;;
8952;SDS011;4511;50.890;8.054;2022-11-20T06:48:35;22.03;;;16.30;;
8952;SDS011;4511;50.890;8.054;2022-11-20T06:51:03;22.30;;;15.67;;
8952;SDS011;4511;50.890;8.054;2022-11-20T06:53:31;24.70;;;15.47;;
8952;SDS011;4511;50.890;8.054;2022-11-20T06:55:58;23.07;;;15.13;;
8952;SDS011;4511;50.890;8.054;2022-11-20T06:58:26;23.70;;;14.77;;
8952;SDS011;4511;50.890;8.054;2022-11-20T07:00:58;23.20;;;15.77;;
8952;SDS011;4511;50.890;8.054;2022-11-20T07:03:25;22.73;;;15.60;;
8952;SDS011;4511;50.890;8.054;2022-11-20T07:05:53;22.80;;;15.37;;
8952;SDS011;4511;50.890;8.054;2022-11-20T07:08:21;23.87;;;16.30;;
8952;SDS011;4511;50.890;8.054;2022-11-20T07:10:48;23.33;;;15.50;;
8952;SDS011;4511;50.890;8.054;2022-11-20T07:13:14;22.47;;;15.57;;
8952;SDS011;4511;50.890;8.054;2022-11-20T07:15:41;23.90;;;16.40;;
8952;SDS011;4511;50.890;8.054;2022-11-20T07:18:09;25.13;;;16.83;;
8952;SDS011;4511;50.890;8.054;2022-11-20T07:20:36;25.23;;;16.03;;
8952;SDS011;4511;50.890;8.054;2022-11-20T07:23:03;28.17;;;17.50;;
8952;SDS011;4511;50.890;8.054;2022-11-20T07:25:29;25.30;;;17.20;;
8952;SDS011;4511;50.890;8.054;2022-11-20T07:27:56;26.30;;;17.13;;
8952;SDS011;4511;50.890;8.054;2022-11-20T07:30:24;30.57;;;18.33;;
8952;SDS011;4511;50.890;8.054;2022-11-20T07:32:51;27.07;;;17.60;;
8952;SDS011;4511;50.890;8.054;2022-11-20T07:35:20;27.33;;;18.20;;
8952;SDS011;4511;50.890;8.054;2022-11-20T07:37:46;29.13;;;18.73;;
8952;SDS011;4511;50.890;8.054;2022-11-20T07:40:13;24.10;;;18.53;;
8952;SDS011;4511;50.890;8.054;2022-11-20T07:42:46;28.00;;;18.20;;
8952;SDS011;4511;50.890;8.054;2022-11-20T07:45:14;26.70;;;18.37;;
8952;SDS011;4511;50.890;8.054;2022-11-20T07:47:41;27.97;;;17.80;;
8952;SDS011;4511;50.890;8.054;2022-11-20T07:50:08;27.73;;;18.53;;
8952;SDS011;4511;50.890;8.054;2022-11-20T07:52:36;26.70;;;18.37;;
8952;SDS011;4511;50.890;8.054;2022-11-20T07:55:03;31.07;;;19.67;;
8952;SDS011;4511;50.890;8.054;2022-11-20T07:57:31;26.30;;;17.53;;
8952;SDS011;4511;50.890;8.054;2022-11-20T07:59:58;28.13;;;17.93;;
8952;SDS011;4511;50.890;8.054;2022-11-20T08:02:24;29.70;;;19.50;;
8952;SDS011;4511;50.890;8.054;2022-11-20T08:04:51;30.37;;;20.80;;
8952;SDS011;4511;50.890;8.054;2022-11-20T08:07:18;27.67;;;18.63;;
8952;SDS011;4511;50.890;8.054;2022-11-20T08:09:46;27.53;;;18.27;;
8952;SDS011;4511;50.890;8.054;2022-11-20T08:12:16;26.53;;;17.87;;
8952;SDS011;4511;50.890;8.054;2022-11-20T08:15:02;30.13;;;19.73;;
8952;SDS011;4511;50.890;8.054;2022-11-20T08:17:29;29.87;;;18.47;;
8952;SDS011;4511;50.890;8.054;2022-11-20T08:19:56;27.67;;;18.90;;
8952;SDS011;4511;50.890;8.054;2022-11-20T08:22:23;31.40;;;19.70;;
8952;SDS011;4511;50.890;8.054;2022-11-20T08:24:52;29.37;;;19.03;;
8952;SDS011;4511;50.890;8.054;2022-11-20T08:27:18;28.37;;;18.73;;
8952;SDS011;4511;50.890;8.054;2022-11-20T08:29:45;29.80;;;19.20;;
8952;SDS011;4511;50.890;8.054;2022-11-20T08:32:12;28.60;;;17.37;;
8952;SDS011;4511;50.890;8.054;2022-11-20T08:34:38;25.17;;;18.00;;
8952;SDS011;4511;50.890;8.054;2022-11-20T08:37:05;27.27;;;17.97;;
8952;SDS011;4511;50.890;8.054;2022-11-20T08:39:33;25.43;;;18.30;;
8952;SDS011;4511;50.890;8.054;2022-11-20T08:42:01;26.27;;;18.33;;
8952;SDS011;4511;50.890;8.054;2022-11-20T08:44:28;26.83;;;18.60;;
8952;SDS011;4511;50.890;8.054;2022-11-20T08:46:54;31.53;;;18.67;;
8952;SDS011;4511;50.890;8.054;2022-11-20T08:49:22;26.43;;;18.20;;
8952;SDS011;4511;50.890;8.054;2022-11-20T08:51:48;27.13;;;18.27;;
8952;SDS011;4511;50.890;8.054;2022-11-20T08:54:18;23.77;;;17.33;;
8952;SDS011;4511;50.890;8.054;2022-11-20T08:56:47;28.20;;;18.27;;
8952;SDS011;4511;50.890;8.054;2022-11-20T08:59:15;25.70;;;17.57;;
8952;SDS011;4511;50.890;8.054;2022-11-20T09:01:42;24.33;;;17.13;;
8952;SDS011;4511;50.890;8.054;2022-11-20T09:04:09;22.70;;;15.57;;
8952;SDS011;4511;50.890;8.054;2022-11-20T09:06:36;22.43;;;15.83;;
8952;SDS011;4511;50.890;8.054;2022-11-20T09:09:03;25.83;;;16.67;;
8952;SDS011;4511;50.890;8.054;2022-11-20T09:11:30;22.37;;;16.07;;
8952;SDS011;4511;50.890;8.054;2022-11-20T09:13:57;20.53;;;14.67;;
8952;SDS011;4511;50.890;8.054;2022-11-20T09:16:26;21.03;;;14.97;;
8952;SDS011;4511;50.890;8.054;2022-11-20T09:18:53;19.50;;;14.80;;
8952;SDS011;4511;50.890;8.054;2022-11-20T09:21:20;21.90;;;15.90;;
8952;SDS011;4511;50.890;8.054;2022-11-20T09:23:47;19.10;;;13.87;;
8952;SDS011;4511;50.890;8.054;2022-11-20T09:26:14;20.43;;;14.23;;
8952;SDS011;4511;50.890;8.054;2022-11-20T09:28:41;19.00;;;14.33;;
8952;SDS011;4511;50.890;8.054;2022-11-20T09:31:08;18.53;;;13.73;;
8952;SDS011;4511;50.890;8.054;2022-11-20T09:33:42;16.13;;;13.10;;
8952;SDS011;4511;50.890;8.054;2022-11-20T09:36:09;17.57;;;13.83;;
8952;SDS011;4511;50.890;8.054;2022-11-20T09:38:35;15.80;;;12.03;;
8952;SDS011;4511;50.890;8.054;2022-11-20T09:41:03;19.43;;;13.27;;
8952;SDS011;4511;50.890;8.054;2022-11-20T09:43:35;15.73;;;12.60;;
8952;SDS011;4511;50.890;8.054;2022-11-20T09:46:09;15.83;;;12.30;;
8952;SDS011;4511;50.890;8.054;2022-11-20T09:48:45;16.60;;;12.53;;
8952;SDS011;4511;50.890;8.054;2022-11-20T09:51:23;17.53;;;13.20;;
8952;SDS011;4511;50.890;8.054;2022-11-20T09:54:05;20.27;;;14.17;;
8952;SDS011;4511;50.890;8.054;2022-11-20T09:56:40;15.57;;;12.53;;
8952;SDS011;4511;50.890;8.054;2022-11-20T09:59:14;15.10;;;12.50;;
8952;SDS011;4511;50.890;8.054;2022-11-20T10:01:59;16.30;;;12.77;;
8952;SDS011;4511;50.890;8.054;2022-11-20T10:04:28;14.50;;;12.20;;
8952;SDS011;4511;50.890;8.054;2022-11-20T10:07:00;15.20;;;11.50;;
8952;SDS011;4511;50.890;8.054;2022-11-20T10:09:34;16.27;;;11.90;;
8952;SDS011;4511;50.890;8.054;2022-11-20T10:12:12;16.63;;;12.70;;
8952;SDS011;4511;50.890;8.054;2022-11-20T10:14:49;17.30;;;11.80;;
8952;SDS011;4511;50.890;8.054;2022-11-20T10:17:26;15.17;;;12.00;;
8952;SDS011;4511;50.890;8.054;2022-11-20T10:20:14;15.30;;;11.17;;
8952;SDS011;4511;50.890;8.054;2022-11-20T10:22:50;13.67;;;11.10;;
8952;SDS011;4511;50.890;8.054;2022-11-20T10:25:30;15.33;;;12.17;;
8952;SDS011;4511;50.890;8.054;2022-11-20T10:28:10;13.43;;;11.10;;
8952;SDS011;4511;50.890;8.054;2022-11-20T10:30:46;14.53;;;11.67;;
8952;SDS011;4511;50.890;8.054;2022-11-20T10:33:19;13.77;;;11.40;;
8952;SDS011;4511;50.890;8.054;2022-11-20T10:35:50;13.87;;;11.10;;
8952;SDS011;4511;50.890;8.054;2022-11-20T10:38:23;14.37;;;10.63;;
8952;SDS011;4511;50.890;8.054;2022-11-20T10:40:56;14.10;;;10.53;;
8952;SDS011;4511;50.890;8.054;2022-11-20T10:43:45;13.40;;;10.70;;
8952;SDS011;4511;50.890;8.054;2022-11-20T10:46:14;11.33;;;10.03;;
8952;SDS011;4511;50.890;8.054;2022-11-20T10:48:43;13.20;;;10.60;;
8952;SDS011;4511;50.890;8.054;2022-11-20T10:51:15;15.63;;;11.10;;
8952;SDS011;4511;50.890;8.054;2022-11-20T10:53:57;11.60;;;9.93;;
8952;SDS011;4511;50.890;8.054;2022-11-20T10:56:33;11.63;;;9.60;;
8952;SDS011;4511;50.890;8.054;2022-11-20T10:59:12;12.53;;;9.37;;
8952;SDS011;4511;50.890;8.054;2022-11-20T11:01:58;12.37;;;10.53;;
8952;SDS011;4511;50.890;8.054;2022-11-20T11:04:31;13.50;;;10.93;;
8952;SDS011;4511;50.890;8.054;2022-11-20T11:07:06;12.87;;;10.67;;
8952;SDS011;4511;50.890;8.054;2022-11-20T11:09:38;13.20;;;10.83;;
8952;SDS011;4511;50.890;8.054;2022-11-20T11:12:09;13.57;;;10.97;;
8952;SDS011;4511;50.890;8.054;2022-11-20T11:14:43;13.87;;;10.37;;
8952;SDS011;4511;50.890;8.054;2022-11-20T11:17:21;14.30;;;10.73;;
8952;SDS011;4511;50.890;8.054;2022-11-20T11:19:57;12.97;;;10.67;;
8952;SDS011;4511;50.890;8.054;2022-11-20T11:22:26;13.83;;;11.00;;
8952;SDS011;4511;50.890;8.054;2022-11-20T11:24:55;13.23;;;10.83;;
8952;SDS011;4511;50.890;8.054;2022-11-20T11:27:22;13.13;;;10.77;;
8952;SDS011;4511;50.890;8.054;2022-11-20T11:29:48;13.70;;;11.60;;
8952;SDS011;4511;50.890;8.054;2022-11-20T11:32:17;12.87;;;11.23;;
8952;SDS011;4511;50.890;8.054;2022-11-20T11:34:57;12.27;;;10.63;;
8952;SDS011;4511;50.890;8.054;2022-11-20T11:37:27;13.53;;;10.97;;
8952;SDS011;4511;50.890;8.054;2022-11-20T11:40:00;12.53;;;10.93;;
8952;SDS011;4511;50.890;8.054;2022-11-20T11:42:28;13.07;;;10.17;;
8952;SDS011;4511;50.890;8.054;2022-11-20T11:44:56;13.90;;;10.60;;
8952;SDS011;4511;50.890;8.054;2022-11-20T11:47:32;14.37;;;10.77;;
8952;SDS011;4511;50.890;8.054;2022-11-20T11:50:08;13.20;;;11.07;;
8952;SDS011;4511;50.890;8.054;2022-11-20T11:52:46;13.20;;;10.37;;
8952;SDS011;4511;50.890;8.054;2022-11-20T11:55:23;12.70;;;10.60;;
8952;SDS011;4511;50.890;8.054;2022-11-20T11:57:57;14.47;;;10.80;;
8952;SDS011;4511;50.890;8.054;2022-11-20T12:00:33;15.10;;;12.30;;
8952;SDS011;4511;50.890;8.054;2022-11-20T12:03:03;13.63;;;11.47;;
8952;SDS011;4511;50.890;8.054;2022-11-20T12:05:36;12.77;;;11.40;;
8952;SDS011;4511;50.890;8.054;2022-11-20T12:08:12;14.20;;;11.17;;
8952;SDS011;4511;50.890;8.054;2022-11-20T12:10:45;14.33;;;11.83;;
8952;SDS011;4511;50.890;8.054;2022-11-20T12:16:10;15.40;;;12.23;;
8952;SDS011;4511;50.890;8.054;2022-11-20T12:18:39;15.20;;;12.03;;
8952;SDS011;4511;50.890;8.054;2022-11-20T12:21:11;15.73;;;12.00;;
8952;SDS011;4511;50.890;8.054;2022-11-20T12:23:56;16.50;;;13.50;;
8952;SDS011;4511;50.890;8.054;2022-11-20T12:26:37;13.33;;;11.37;;
8952;SDS011;4511;50.890;8.054;2022-11-20T12:29:16;13.93;;;12.23;;
8952;SDS011;4511;50.890;8.054;2022-11-20T12:31:52;16.07;;;12.43;;
8952;SDS011;4511;50.890;8.054;2022-11-20T12:34:34;14.10;;;12.07;;
8952;SDS011;4511;50.890;8.054;2022-11-20T12:37:15;17.23;;;12.90;;
8952;SDS011;4511;50.890;8.054;2022-11-20T12:39:55;15.13;;;12.53;;
8952;SDS011;4511;50.890;8.054;2022-11-20T12:42:34;17.00;;;13.10;;
8952;SDS011;4511;50.890;8.054;2022-11-20T12:45:40;18.10;;;13.43;;
8952;SDS011;4511;50.890;8.054;2022-11-20T12:48:41;16.97;;;13.60;;
8952;SDS011;4511;50.890;8.054;2022-11-20T12:51:32;18.17;;;14.80;;
8952;SDS011;4511;50.890;8.054;2022-11-20T12:54:26;17.97;;;14.23;;
8952;SDS011;4511;50.890;8.054;2022-11-20T12:57:14;17.87;;;14.10;;
8952;SDS011;4511;50.890;8.054;2022-11-20T12:59:51;19.90;;;14.87;;
8952;SDS011;4511;50.890;8.054;2022-11-20T13:02:30;19.97;;;15.60;;
8952;SDS011;4511;50.890;8.054;2022-11-20T13:05:07;19.73;;;14.53;;
8952;SDS011;4511;50.890;8.054;2022-11-20T13:07:44;19.13;;;14.50;;
8952;SDS011;4511;50.890;8.054;2022-11-20T13:10:14;20.43;;;15.40;;
8952;SDS011;4511;50.890;8.054;2022-11-20T13:12:47;18.20;;;14.40;;
8952;SDS011;4511;50.890;8.054;2022-11-20T13:15:24;19.67;;;15.07;;
8952;SDS011;4511;50.890;8.054;2022-11-20T13:18:01;19.37;;;14.77;;
8952;SDS011;4511;50.890;8.054;2022-11-20T13:20:31;20.00;;;15.37;;
8952;SDS011;4511;50.890;8.054;2022-11-20T13:23:00;17.87;;;14.40;;
8952;SDS011;4511;50.890;8.054;2022-11-20T13:25:27;18.30;;;14.23;;
8952;SDS011;4511;50.890;8.054;2022-11-20T13:27:57;20.23;;;15.10;;
8952;SDS011;4511;50.890;8.054;2022-11-20T13:30:25;18.40;;;14.40;;
8952;SDS011;4511;50.890;8.054;2022-11-20T13:32:53;20.03;;;14.43;;
8952;SDS011;4511;50.890;8.054;2022-11-20T13:35:28;20.30;;;14.87;;
8952;SDS011;4511;50.890;8.054;2022-11-20T13:38:01;19.93;;;14.20;;
8952;SDS011;4511;50.890;8.054;2022-11-20T13:40:30;18.80;;;14.23;;
8952;SDS011;4511;50.890;8.054;2022-11-20T13:43:04;21.10;;;14.77;;
8952;SDS011;4511;50.890;8.054;2022-11-20T13:45:40;17.63;;;14.60;;
8952;SDS011;4511;50.890;8.054;2022-11-20T13:48:18;17.67;;;13.93;;
8952;SDS011;4511;50.890;8.054;2022-11-20T13:50:50;19.37;;;14.43;;
8952;SDS011;4511;50.890;8.054;2022-11-20T13:53:28;18.87;;;15.17;;
8952;SDS011;4511;50.890;8.054;2022-11-20T13:56:08;20.93;;;15.37;;
8952;SDS011;4511;50.890;8.054;2022-11-20T13:58:47;21.73;;;15.43;;
8952;SDS011;4511;50.890;8.054;2022-11-20T14:01:19;20.70;;;15.10;;
8952;SDS011;4511;50.890;8.054;2022-11-20T14:03:47;18.23;;;14.13;;
8952;SDS011;4511;50.890;8.054;2022-11-20T14:06:16;21.23;;;15.23;;
8952;SDS011;4511;50.890;8.054;2022-11-20T14:08:52;24.00;;;16.23;;
8952;SDS011;4511;50.890;8.054;2022-11-20T14:11:20;22.50;;;16.07;;
8952;SDS011;4511;50.890;8.054;2022-11-20T14:13:54;21.40;;;15.93;;
8952;SDS011;4511;50.890;8.054;2022-11-20T14:16:25;20.40;;;15.60;;
8952;SDS011;4511;50.890;8.054;2022-11-20T14:18:53;23.00;;;17.03;;
8952;SDS011;4511;50.890;8.054;2022-11-20T14:21:21;20.80;;;15.60;;
8952;SDS011;4511;50.890;8.054;2022-11-20T14:23:51;20.10;;;15.80;;
8952;SDS011;4511;50.890;8.054;2022-11-20T14:26:19;21.27;;;16.07;;
8952;SDS011;4511;50.890;8.054;2022-11-20T14:28:47;22.13;;;15.90;;
8952;SDS011;4511;50.890;8.054;2022-11-20T14:31:18;23.30;;;16.90;;
8952;SDS011;4511;50.890;8.054;2022-11-20T14:33:49;24.23;;;16.17;;
8952;SDS011;4511;50.890;8.054;2022-11-20T14:36:17;25.00;;;16.73;;
8952;SDS011;4511;50.890;8.054;2022-11-20T14:38:45;23.87;;;16.67;;
8952;SDS011;4511;50.890;8.054;2022-11-20T14:41:16;23.50;;;16.77;;
8952;SDS011;4511;50.890;8.054;2022-11-20T14:43:45;20.30;;;15.83;;
8952;SDS011;4511;50.890;8.054;2022-11-20T14:46:13;21.20;;;16.37;;
8952;SDS011;4511;50.890;8.054;2022-11-20T14:48:43;22.87;;;16.27;;
8952;SDS011;4511;50.890;8.054;2022-11-20T14:51:22;24.73;;;16.87;;
8952;SDS011;4511;50.890;8.054;2022-11-20T14:53:53;22.87;;;16.80;;
8952;SDS011;4511;50.890;8.054;2022-11-20T14:56:21;22.10;;;16.73;;
8952;SDS011;4511;50.890;8.054;2022-11-20T14:58:55;23.23;;;15.47;;
8952;SDS011;4511;50.890;8.054;2022-11-20T15:01:25;24.37;;;16.30;;
8952;SDS011;4511;50.890;8.054;2022-11-20T15:03:59;20.80;;;16.07;;
8952;SDS011;4511;50.890;8.054;2022-11-20T15:06:26;21.43;;;15.57;;
8952;SDS011;4511;50.890;8.054;2022-11-20T15:08:54;23.77;;;16.60;;
8952;SDS011;4511;50.890;8.054;2022-11-20T15:11:23;24.80;;;17.27;;